createdAt,value
2022-09-23T00:02:15.090Z,100838.28
2022-09-23T00:05:16.953Z,100834.88
2022-09-23T00:08:18.720Z,100835.00
2022-09-23T00:11:28.575Z,100842.00
2022-09-23T00:14:30.157Z,100833.28
2022-09-23T00:17:32.680Z,100835.12
2022-09-23T00:20:36.689Z,100842.44
2022-09-23T00:23:40.722Z,100834.00
2022-09-23T00:26:42.703Z,100835.34
2022-09-23T00:29:44.427Z,100829.34
2022-09-23T00:32:46.178Z,100824.47
2022-09-23T00:35:48.129Z,100830.16
2022-09-23T00:38:49.869Z,100833.53
2022-09-23T00:41:52.405Z,100827.37
2022-09-23T00:44:56.618Z,100824.94
2022-09-23T00:48:02.211Z,100817.00
2022-09-23T00:51:05.375Z,100820.97
2022-09-23T00:54:07.951Z,100812.44
2022-09-23T00:57:11.293Z,100804.66
2022-09-23T01:00:13.759Z,100817.84
2022-09-23T01:03:15.475Z,100816.91
2022-09-23T01:06:17.405Z,100825.12
2022-09-23T01:09:20.071Z,100821.06
2022-09-23T01:12:39.666Z,100825.31
2022-09-23T01:15:50.015Z,100818.00
2022-09-23T01:19:22.182Z,100822.09
2022-09-23T01:22:47.535Z,100823.06
2022-09-23T01:26:29.832Z,100817.53
2022-09-23T01:29:43.144Z,100819.69
2022-09-23T01:33:14.365Z,100822.78
2022-09-23T01:36:27.947Z,100823.03
2022-09-23T01:39:37.809Z,100820.22
2022-09-23T01:42:44.963Z,100821.06
2022-09-23T01:45:48.555Z,100820.66
2022-09-23T01:48:59.500Z,100817.13
2022-09-23T01:52:15.691Z,100816.75
2022-09-23T01:55:27.583Z,100813.03
2022-09-23T01:58:42.149Z,100812.44
2022-09-23T02:02:01.618Z,100819.38
2022-09-23T02:05:19.911Z,100816.97
2022-09-23T02:08:27.573Z,100816.06
2022-09-23T02:11:29.189Z,100822.16
2022-09-23T02:14:38.818Z,100816.44
2022-09-23T02:17:52.030Z,100816.91
2022-09-23T02:20:58.611Z,100816.69
2022-09-23T02:24:27.528Z,100819.41
2022-09-23T02:27:45.871Z,100818.28
2022-09-23T02:30:57.791Z,100829.47
2022-09-23T02:34:24.565Z,100823.09
2022-09-23T02:37:37.318Z,100828.56
2022-09-23T02:40:41.437Z,100820.50
2022-09-23T02:43:54.175Z,100813.88
2022-09-23T02:46:57.981Z,100815.19
2022-09-23T02:50:00.011Z,100821.03
2022-09-23T02:53:02.502Z,100820.50
2022-09-23T02:56:22.039Z,100815.84
2022-09-23T02:59:24.748Z,100821.59
2022-09-23T03:02:41.899Z,100819.34
2022-09-23T03:05:55.102Z,100815.09
2022-09-23T03:09:05.720Z,100817.69
2022-09-23T03:12:32.529Z,100809.56
2022-09-23T03:16:00.139Z,100812.72
2022-09-23T03:19:17.182Z,100814.66
2022-09-23T03:22:41.042Z,100815.56
2022-09-23T03:25:47.277Z,100819.41
2022-09-23T03:28:50.424Z,100815.66
2022-09-23T03:31:53.475Z,100820.94
2022-09-23T03:34:58.487Z,100818.91
2022-09-23T03:38:08.513Z,100810.16
2022-09-23T03:41:16.769Z,100811.03
2022-09-23T03:44:19.754Z,100806.94
2022-09-23T03:47:21.919Z,100803.06
2022-09-23T03:50:24.450Z,100805.97
2022-09-23T03:53:26.158Z,100810.66
2022-09-23T03:56:27.998Z,100803.91
2022-09-23T03:59:32.996Z,100811.94
2022-09-23T04:02:34.902Z,100814.59
2022-09-23T04:05:36.741Z,100814.84
2022-09-23T04:08:38.595Z,100810.03
2022-09-23T04:11:40.544Z,100806.44
2022-09-23T04:14:42.851Z,100817.66
2022-09-23T04:17:44.514Z,100813.09
2022-09-23T04:20:46.433Z,100816.84
2022-09-23T04:23:50.684Z,100823.53
2022-09-23T04:26:54.116Z,100818.78
2022-09-23T04:29:55.731Z,100820.75
2022-09-23T04:32:57.474Z,100822.06
2022-09-23T04:35:59.586Z,100826.38
2022-09-23T04:39:01.578Z,100828.16
2022-09-23T04:42:04.435Z,100829.53
2022-09-23T04:45:06.677Z,100829.00
2022-09-23T04:48:09.622Z,100829.44
2022-09-23T04:51:14.783Z,100831.09
2022-09-23T04:54:16.609Z,100834.69
2022-09-23T04:57:18.165Z,100847.47
2022-09-23T05:00:19.941Z,100846.09
2022-09-23T05:03:21.846Z,100838.50
2022-09-23T05:06:25.169Z,100840.06
2022-09-23T05:09:26.961Z,100839.06
2022-09-23T05:12:28.897Z,100843.00
2022-09-23T05:15:30.489Z,100844.31
2022-09-23T05:18:35.528Z,100843.50
2022-09-23T05:21:38.147Z,100847.06
2022-09-23T05:24:46.241Z,100844.38
2022-09-23T05:27:52.917Z,100849.34
2022-09-23T05:31:02.947Z,100850.69
2022-09-23T05:34:05.476Z,100859.84
2022-09-23T05:37:07.271Z,100861.22
2022-09-23T05:40:09.392Z,100857.13
2022-09-23T05:43:11.252Z,100855.78
2022-09-23T05:46:15.814Z,100850.75
2022-09-23T05:49:17.656Z,100846.28
2022-09-23T05:52:21.753Z,100852.47
2022-09-23T05:55:23.536Z,100856.34
2022-09-23T05:58:25.529Z,100859.78
2022-09-23T06:01:32.172Z,100856.38
2022-09-23T06:04:33.867Z,100860.53
2022-09-23T06:07:35.682Z,100858.28
2022-09-23T06:10:42.229Z,100860.31
2022-09-23T06:13:46.585Z,100856.94
2022-09-23T06:20:22.707Z,100862.16
2022-09-23T06:23:26.518Z,100860.69
2022-09-23T06:26:35.161Z,100864.03
2022-09-23T06:29:40.128Z,100862.16
2022-09-23T06:32:47.788Z,100858.34
2022-09-23T06:35:58.014Z,100852.47
2022-09-23T06:39:02.581Z,100860.53
2022-09-23T06:42:06.839Z,100862.06
2022-09-23T06:45:13.037Z,100860.91
2022-09-23T06:48:14.850Z,100856.78
2022-09-23T06:51:19.362Z,100870.53
2022-09-23T06:54:21.320Z,100884.22
2022-09-23T06:57:32.213Z,100880.09
2022-09-23T07:00:34.123Z,100880.84
2022-09-23T07:03:36.626Z,100880.25
2022-09-23T07:06:39.460Z,100886.62
2022-09-23T07:09:41.228Z,100883.94
2022-09-23T07:12:43.060Z,100889.84
2022-09-23T07:15:58.468Z,100878.97
2022-09-23T07:19:00.410Z,100883.38
2022-09-23T07:22:02.531Z,100874.31
2022-09-23T07:25:06.043Z,100881.66
2022-09-23T07:28:08.261Z,100880.06
2022-09-23T07:31:12.977Z,100883.31
2022-09-23T07:34:14.939Z,100888.09
2022-09-23T07:37:17.920Z,100885.88
2022-09-23T07:40:19.617Z,100887.81
2022-09-23T07:43:22.360Z,100894.06
2022-09-23T07:46:24.004Z,100892.13
2022-09-23T07:49:27.530Z,100889.19
2022-09-23T07:52:29.108Z,100891.31
2022-09-23T07:55:30.874Z,100901.66
2022-09-23T07:58:33.960Z,100900.84
2022-09-23T08:01:42.743Z,100903.31
2022-09-23T08:04:44.697Z,100910.84
2022-09-23T08:07:46.504Z,100900.66
2022-09-23T08:10:48.089Z,100902.31
2022-09-23T08:13:49.935Z,100898.03
2022-09-23T08:16:52.405Z,100892.38
2022-09-23T08:19:54.208Z,100900.34
2022-09-23T08:22:55.955Z,100890.06
2022-09-23T08:26:00.145Z,100896.00
2022-09-23T08:29:02.223Z,100892.75
2022-09-23T08:32:04.024Z,100900.47
2022-09-23T08:35:06.090Z,100893.66
2022-09-23T08:38:08.161Z,100891.47
2022-09-23T08:41:21.855Z,100887.78
2022-09-23T08:44:42.711Z,100885.06
2022-09-23T08:47:49.151Z,100871.72
2022-09-23T08:50:59.803Z,100880.28
2022-09-23T08:54:01.945Z,100877.22
2022-09-23T08:57:05.684Z,100876.84
2022-09-23T09:00:14.345Z,100879.22
2022-09-23T09:03:48.226Z,100872.47
2022-09-23T09:07:31.767Z,100874.84
2022-09-23T09:10:33.433Z,100873.69
2022-09-23T09:13:43.416Z,100876.63
2022-09-23T09:17:00.117Z,100870.16
2022-09-23T09:20:06.438Z,100876.28
2022-09-23T09:23:07.924Z,100870.81
2022-09-23T09:26:19.720Z,100872.44
2022-09-23T09:29:35.903Z,100867.37
2022-09-23T09:33:07.024Z,100870.13
2022-09-23T09:36:30.867Z,100863.09
2022-09-23T09:39:36.488Z,100871.28
2022-09-23T09:42:40.577Z,100865.13
2022-09-23T09:45:57.696Z,100858.94
2022-09-23T09:49:11.479Z,100849.50
2022-09-23T09:52:28.800Z,100856.00
2022-09-23T09:55:30.613Z,100854.66
2022-09-23T09:58:44.004Z,100852.34
2022-09-23T10:01:48.745Z,100858.41
2022-09-23T10:04:57.008Z,100854.03
2022-09-23T10:08:36.994Z,100856.16
2022-09-23T10:11:40.555Z,100853.94
2022-09-23T10:14:43.459Z,100856.47
2022-09-23T10:17:50.593Z,100857.28
2022-09-23T10:20:52.136Z,100862.56
2022-09-23T10:23:58.176Z,100862.38
2022-09-23T10:27:12.087Z,100864.59
2022-09-23T10:30:21.832Z,100857.53
2022-09-23T10:33:27.924Z,100858.13
2022-09-23T10:36:32.804Z,100853.78
2022-09-23T10:39:52.837Z,100845.56
2022-09-23T10:43:38.185Z,100840.78
2022-09-23T10:47:25.760Z,100836.69
2022-09-23T10:50:49.064Z,100831.78
2022-09-23T10:54:27.299Z,100835.69
2022-09-23T10:58:00.663Z,100836.03
2022-09-23T11:01:27.450Z,100826.25
2022-09-23T11:04:52.606Z,100824.34
2022-09-23T11:08:10.640Z,100819.56
2022-09-23T11:11:34.109Z,100813.16
2022-09-23T11:14:58.820Z,100803.69
2022-09-23T11:18:45.942Z,100803.75
2022-09-23T11:22:02.491Z,100805.44
2022-09-23T11:25:25.659Z,100793.09
2022-09-23T11:28:40.202Z,100798.34
2022-09-23T11:31:52.552Z,100802.22
2022-09-23T11:35:12.145Z,100798.81
2022-09-23T11:38:26.107Z,100787.78
2022-09-23T11:41:36.498Z,100793.56
2022-09-23T11:44:49.965Z,100786.37
2022-09-23T11:48:26.107Z,100788.88
2022-09-23T11:52:01.598Z,100791.22
2022-09-23T11:55:22.943Z,100787.94
2022-09-23T11:58:31.535Z,100786.84
2022-09-23T12:01:41.104Z,100770.50
2022-09-23T12:05:08.147Z,100772.44
2022-09-23T12:08:23.620Z,100774.34
2022-09-23T12:11:51.025Z,100763.84
2022-09-23T12:15:13.543Z,100769.16
2022-09-23T12:18:30.455Z,100770.62
2022-09-23T12:22:06.024Z,100762.56
2022-09-23T12:25:35.688Z,100758.94
2022-09-23T12:28:41.498Z,100751.19
2022-09-23T12:31:46.702Z,100750.22
2022-09-23T12:34:52.018Z,100751.06
2022-09-23T12:37:54.621Z,100749.44
2022-09-23T12:40:56.798Z,100758.28
2022-09-23T12:44:12.463Z,100754.56
2022-09-23T12:47:26.370Z,100756.13
2022-09-23T12:54:22.543Z,100752.31
2022-09-23T12:57:33.469Z,100744.56
2022-09-23T13:00:35.467Z,100739.13
2022-09-23T13:04:04.459Z,100733.16
2022-09-23T13:07:09.429Z,100733.81
2022-09-23T13:10:29.159Z,100728.84
2022-09-23T13:14:00.508Z,100735.19
2022-09-23T13:17:02.121Z,100729.41
2022-09-23T13:20:36.550Z,100723.50
2022-09-23T13:23:38.444Z,100729.56
2022-09-23T13:26:45.714Z,100720.88
2022-09-23T13:29:59.436Z,100722.94
2022-09-23T13:33:14.099Z,100716.28
2022-09-23T13:36:20.118Z,100714.16
2022-09-23T13:39:27.995Z,100704.63
2022-09-23T13:42:30.520Z,100694.56
2022-09-23T13:45:38.235Z,100694.75
2022-09-23T13:48:43.350Z,100698.88
2022-09-23T13:51:45.488Z,100692.41
2022-09-23T13:54:50.048Z,100689.16
2022-09-23T13:58:05.284Z,100686.69
2022-09-23T14:01:34.958Z,100682.75
2022-09-23T14:04:36.817Z,100681.81
2022-09-23T14:07:38.699Z,100688.53
2022-09-23T14:10:42.986Z,100685.34
2022-09-23T14:13:47.166Z,100681.09
2022-09-23T14:16:51.207Z,100680.25
2022-09-23T14:19:52.973Z,100681.88
2022-09-23T14:23:10.846Z,100669.66
2022-09-23T14:26:12.481Z,100674.94
2022-09-23T14:29:20.118Z,100679.72
2022-09-23T14:32:25.956Z,100677.09
2022-09-23T14:35:42.346Z,100680.69
2022-09-23T14:38:53.024Z,100677.78
2022-09-23T14:41:54.970Z,100681.41
2022-09-23T14:44:56.794Z,100684.00
2022-09-23T14:48:01.464Z,100673.50
2022-09-23T14:51:08.666Z,100676.03
2022-09-23T14:54:26.618Z,100670.06
2022-09-23T14:57:32.199Z,100671.56
2022-09-23T15:00:33.882Z,100679.44
2022-09-23T15:03:47.811Z,100674.87
2022-09-23T15:06:54.103Z,100676.59
2022-09-23T15:09:55.940Z,100674.63
2022-09-23T15:13:07.530Z,100669.22
2022-09-23T15:16:09.494Z,100669.16
2022-09-23T15:19:19.274Z,100670.75
2022-09-23T15:22:21.266Z,100666.72
2022-09-23T15:25:33.882Z,100669.84
2022-09-23T15:28:35.615Z,100675.28
2022-09-23T15:31:37.718Z,100667.34
2022-09-23T15:34:39.482Z,100665.31
2022-09-23T15:37:43.112Z,100664.41
2022-09-23T15:40:44.795Z,100663.47
2022-09-23T15:43:47.336Z,100661.22
2022-09-23T15:46:51.956Z,100658.63
2022-09-23T15:49:53.897Z,100657.84
2022-09-23T15:52:55.776Z,100651.75
2022-09-23T15:55:58.793Z,100655.09
2022-09-23T15:59:00.941Z,100651.44
2022-09-23T16:02:08.048Z,100650.69
2022-09-23T16:05:36.751Z,100655.69
2022-09-23T16:08:39.168Z,100651.16
2022-09-23T16:11:46.163Z,100650.50
2022-09-23T16:14:47.878Z,100647.16
2022-09-23T16:17:50.530Z,100659.38
2022-09-23T16:20:52.469Z,100648.56
2022-09-23T16:23:57.597Z,100653.66
2022-09-23T16:27:04.164Z,100663.16
2022-09-23T16:30:07.124Z,100662.50
2022-09-23T16:33:08.893Z,100661.66
2022-09-23T16:36:31.182Z,100656.03
2022-09-23T16:39:33.145Z,100656.12
2022-09-23T16:42:35.189Z,100659.34
2022-09-23T16:45:36.910Z,100660.87
2022-09-23T16:48:40.640Z,100660.19
2022-09-23T16:51:42.546Z,100663.50
2022-09-23T16:54:45.191Z,100658.19
2022-09-23T16:57:46.908Z,100656.53
2022-09-23T17:01:07.291Z,100646.56
2022-09-23T17:04:10.636Z,100655.41
2022-09-23T17:07:12.849Z,100658.19
2022-09-23T17:10:15.203Z,100656.44
2022-09-23T17:13:17.418Z,100648.59
2022-09-23T17:16:31.565Z,100648.25
2022-09-23T17:19:34.662Z,100647.09
2022-09-23T17:22:36.233Z,100651.19
2022-09-23T17:25:38.032Z,100652.44
2022-09-23T17:28:39.583Z,100651.94
2022-09-23T17:31:41.389Z,100656.94
2022-09-23T17:34:44.102Z,100657.75
2022-09-23T17:37:47.674Z,100662.44
2022-09-23T17:40:54.525Z,100664.91
2022-09-23T17:43:58.440Z,100674.28
2022-09-23T17:47:00.754Z,100667.97
2022-09-23T17:50:02.363Z,100665.72
2022-09-23T17:53:05.197Z,100664.41
2022-09-23T17:56:19.088Z,100667.91
2022-09-23T17:59:21.605Z,100678.97
2022-09-23T18:02:23.576Z,100675.59
2022-09-23T18:05:25.411Z,100678.88
2022-09-23T18:08:30.643Z,100679.28
2022-09-23T18:11:35.838Z,100682.56
2022-09-23T18:14:37.399Z,100679.47
2022-09-23T18:17:39.204Z,100685.56
2022-09-23T18:20:40.991Z,100676.69
2022-09-23T18:23:42.583Z,100685.91
2022-09-23T18:26:46.156Z,100683.19
2022-09-23T18:29:47.996Z,100687.69
2022-09-23T18:32:50.062Z,100687.72
2022-09-23T18:35:54.516Z,100686.38
2022-09-23T18:38:56.808Z,100680.63
2022-09-23T18:41:58.468Z,100682.00
2022-09-23T18:45:00.089Z,100674.63
2022-09-23T18:48:21.128Z,100676.28
2022-09-23T18:51:25.767Z,100684.19
2022-09-23T18:54:28.925Z,100679.78
2022-09-23T18:57:30.675Z,100674.78
2022-09-23T19:00:32.315Z,100685.00
2022-09-23T19:03:36.074Z,100684.84
2022-09-23T19:06:38.029Z,100680.97
2022-09-23T19:09:39.807Z,100671.34
2022-09-23T19:12:41.576Z,100674.44
2022-09-23T19:15:43.466Z,100674.87
2022-09-23T19:18:48.681Z,100680.38
2022-09-23T19:21:50.304Z,100687.00
2022-09-23T19:24:52.132Z,100688.50
2022-09-23T19:27:53.930Z,100688.56
2022-09-23T19:30:56.183Z,100691.03
2022-09-23T19:34:00.599Z,100685.63
2022-09-23T19:37:04.576Z,100686.53
2022-09-23T19:40:07.278Z,100683.75
2022-09-23T19:43:09.056Z,100677.44
2022-09-23T19:46:10.775Z,100680.47
2022-09-23T19:49:13.026Z,100684.53
2022-09-23T19:52:14.913Z,100682.81
2022-09-23T19:55:16.765Z,100680.03
2022-09-23T19:58:18.399Z,100681.97
2022-09-23T20:01:22.248Z,100682.31
2022-09-23T20:04:24.110Z,100682.75
2022-09-23T20:07:25.955Z,100680.41
2022-09-23T20:10:27.536Z,100684.69
2022-09-23T20:13:29.221Z,100682.84
2022-09-23T20:16:32.987Z,100684.66
2022-09-23T20:19:34.864Z,100684.63
2022-09-23T20:22:37.019Z,100687.81
2022-09-23T20:25:57.313Z,100681.13
2022-09-23T20:29:02.381Z,100690.38
2022-09-23T20:32:04.829Z,100689.19
2022-09-23T20:35:07.429Z,100687.75
2022-09-23T20:38:09.620Z,100674.97
2022-09-23T20:41:11.549Z,100677.63
2022-09-23T20:44:13.915Z,100679.94
2022-09-23T20:47:17.922Z,100677.94
2022-09-23T20:50:19.543Z,100677.59
2022-09-23T20:53:23.287Z,100674.75
2022-09-23T20:56:25.344Z,100672.31
2022-09-23T20:59:27.576Z,100673.25
2022-09-23T21:02:29.563Z,100680.31
2022-09-23T21:05:31.157Z,100680.87
2022-09-23T21:08:34.756Z,100682.88
2022-09-23T21:11:36.324Z,100680.34
2022-09-23T21:14:38.043Z,100677.44
2022-09-23T21:17:39.610Z,100678.22
2022-09-23T21:20:42.198Z,100674.22
2022-09-23T21:23:44.139Z,100674.75
2022-09-23T21:26:47.411Z,100681.19
2022-09-23T21:29:49.110Z,100681.94
2022-09-23T21:32:50.860Z,100681.59
2022-09-23T21:35:56.843Z,100673.06
2022-09-23T21:39:01.990Z,100679.44
2022-09-23T21:42:04.052Z,100675.22
2022-09-23T21:45:06.744Z,100668.00
2022-09-23T21:48:08.294Z,100673.47
2022-09-23T21:51:14.134Z,100677.56
2022-09-23T21:54:16.975Z,100670.72
2022-09-23T21:57:18.556Z,100665.03
2022-09-23T22:00:20.366Z,100669.59
2022-09-23T22:03:22.350Z,100674.75
2022-09-23T22:06:27.169Z,100678.19
2022-09-23T22:09:28.976Z,100676.03
2022-09-23T22:12:30.851Z,100678.66
2022-09-23T22:15:36.905Z,100676.16
2022-09-23T22:18:38.480Z,100678.81
2022-09-23T22:21:42.282Z,100673.50
2022-09-23T22:24:46.182Z,100675.41
2022-09-23T22:28:07.052Z,100677.06
2022-09-23T22:31:27.530Z,100675.41
2022-09-23T22:34:48.522Z,100676.59
2022-09-23T22:37:50.976Z,100677.87
2022-09-23T22:40:53.335Z,100680.28
2022-09-23T22:43:55.829Z,100681.03
2022-09-23T22:46:59.240Z,100666.72
2022-09-23T22:50:01.963Z,100674.13
2022-09-23T22:53:04.162Z,100665.59
2022-09-23T22:56:06.086Z,100670.34
2022-09-23T22:59:10.212Z,100668.16
2022-09-23T23:02:12.090Z,100667.63
2022-09-23T23:05:14.905Z,100668.66
2022-09-23T23:08:17.575Z,100665.97
2022-09-23T23:11:19.233Z,100670.34
2022-09-23T23:14:21.826Z,100672.69
2022-09-23T23:17:23.845Z,100673.50
2022-09-23T23:20:26.011Z,100666.03
2022-09-23T23:23:27.818Z,100672.41
2022-09-23T23:26:31.038Z,100665.13
2022-09-23T23:29:32.908Z,100666.25
2022-09-23T23:32:34.838Z,100663.25
2022-09-23T23:35:36.400Z,100662.62
2022-09-23T23:38:40.362Z,100657.50
2022-09-23T23:41:43.808Z,100657.09
2022-09-23T23:44:45.664Z,100658.34
2022-09-23T23:47:47.637Z,100656.12
2022-09-23T23:50:58.214Z,100659.31
2022-09-23T23:54:00.056Z,100656.50
2022-09-23T23:57:01.812Z,100662.91
